Norfolk, CT

9:25 AM EDT on July 29, 2016 (GMT -0400)
Great Mountain Forest | | Change Station

Elev 1403 ft 41.97 °N, 73.23 °W | Updated 48 seconds ago

Light Rain
Light Rain Mist
68.8 °F
Feels Like 68.8 °F
N
0.0
Wind Variable Wind from West
Gusts 3.0 mph

Today
High -- | Low -- °F
--% Chance of Precip.
Yesterday
High -- | Low -- °F
Precip. -- in
Pressure 29.88 in
Visibility 4.0 miles
Clouds Scattered Clouds 8000 ft
Overcast 10000 ft
Dew Point 68 °F
Humidity 98%
Rainfall 0.14 in
Snow Depth Not available.
5:43 AM 8:14 PM
Waning Crescent, 22% visible
METAR KBDL 291251Z 36005KT 4SM -RA BR SCT080 OVC100 22/21 A2989 RMK AO2 SLP119 P0008 T02220211
Pressure 29.88 in
Visibility 4.0 miles
Clouds Scattered Clouds 8000 ft
Overcast 10000 ft
Dew Point 68 °F
Humidity 98%
Rainfall 0.14 in
Snow Depth Not available.
5:43 AM 8:14 PM
Waning Crescent, 22% visible
METAR KBDL 291251Z 36005KT 4SM -RA BR SCT080 OVC100 22/21 A2989 RMK AO2 SLP119 P0008 T02220211

10-Day Weather Forecast

Almanac

Astronomy

Jul. 29, 2016 Rise Set
Actual Time
Civil Twilight
Nautical Twilight
Astronomical Twilight
Moon
Length of Visible Light
Length of Day
Tomorrow will be .
, % of the Moon is Illuminated

Today's Extremes

State Highs State Lows

Community

WunderPhotos

Upload Photos

1,928,339 photos uploaded!

WunderBlog® & News

Nearby

Air Quality

  Air Quality AQ Index Pollutant
Not available.

Snow Depth

Station Depth Elevation

Earthquake Activity

City Distance Mag. Time & Date
Minimum magnitude displayed is 2.5.

Coastal Water Temperatures

Place Temperature

Stations

Nearby Weather Stations

Station Location Temp. Windchill Dew Point Humidity Wind Precip. Elev Updated Type
                   

Watches & Warnings

There are currently no watches in effect.